Terminal Aerodrome Forecast
Issued by NWS

Home | Current Version | Previous Version | Text Only | Print | Product List | Glossary On
Versions: 1 2 3 4 5 6 7 8 9 10 11 12 13 14 15 16 17 18
000
FTUS44 KLIX 181745
TAFHDC
TAF
KHDC 181745Z 1818/1918 20012KT P6SM SCT028 BKN030 OVC045
     FM190200 31012KT P6SM VCSH SCT003 BKN030
     FM190300 33013KT P6SM SCT001 BKN050 PROB30 1903/1905 4SM -SHRA
      BKN001 OVC040
     FM190500 35013KT P6SM SCT130
     FM190900 35009KT P6SM SKC=

USA.gov is the U.S. government's official web portal to all federal, state and local government web resources and services.